Time;durP1;ratioP1;P1;durP2;ratioP2;P2;SDS_P1;SDS_P2;PMS_P1;PMS_P2;Temp;Humidity;BMP_temperature;BMP_pressure;BME280_temperature;BME280_humidity;BME280_pressure;Samples;Min_cycle;Max_cycle;Signal;HPM_P1;HPM_P2
2023/12/27 00:00:25;;;;;;;16.73;6.18;;;;;;;;;;7365724;19;20510;-76
2023/12/27 00:02:50;;;;;;;16.67;5.47;;;;;;;;;;7382132;19;20006;-75
2023/12/27 00:05:15;;;;;;;16.38;6.43;;;;;;;;;;7369478;19;20005;-76
2023/12/27 00:07:41;;;;;;;16.65;5.85;;;;;;;;;;7364085;19;20353;-75
2023/12/27 00:10:07;;;;;;;14.20;6.22;;;;;;;;;;7363889;19;20013;-75
2023/12/27 00:12:32;;;;;;;13.93;5.88;;;;;;;;;;7364778;19;20012;-77
2023/12/27 00:14:57;;;;;;;12.93;6.00;;;;;;;;;;7365340;19;20003;-76
2023/12/27 00:17:23;;;;;;;14.88;5.78;;;;;;;;;;7385451;19;19998;-76
2023/12/27 00:19:48;;;;;;;11.77;5.50;;;;;;;;;;7368623;19;20018;-75
2023/12/27 00:22:15;;;;;;;16.10;6.15;;;;;;;;;;7371437;19;20031;-74
2023/12/27 00:24:40;;;;;;;12.80;5.47;;;;;;;;;;7368944;19;20007;-74
2023/12/27 00:27:06;;;;;;;11.50;5.30;;;;;;;;;;7369774;19;20361;-74
2023/12/27 00:29:32;;;;;;;11.35;5.28;;;;;;;;;;7393722;19;20099;-75
2023/12/27 00:31:57;;;;;;;15.00;5.50;;;;;;;;;;7371873;19;20010;-75
2023/12/27 00:34:23;;;;;;;10.65;5.18;;;;;;;;;;7370300;19;20018;-75
2023/12/27 00:36:48;;;;;;;13.13;5.07;;;;;;;;;;7369241;19;20007;-75
2023/12/27 00:39:14;;;;;;;13.77;5.45;;;;;;;;;;7371476;19;20401;-75
2023/12/27 00:41:40;;;;;;;15.20;5.30;;;;;;;;;;7394619;19;19995;-75
2023/12/27 00:44:05;;;;;;;8.90;5.00;;;;;;;;;;7379932;19;20081;-75
2023/12/27 00:46:31;;;;;;;13.90;5.72;;;;;;;;;;7383371;19;20091;-76
2023/12/27 00:48:56;;;;;;;12.93;6.10;;;;;;;;;;7370746;19;20021;-76
2023/12/27 00:51:21;;;;;;;16.90;5.80;;;;;;;;;;7371585;19;20006;-76
2023/12/27 00:53:48;;;;;;;13.68;5.47;;;;;;;;;;7392751;19;20007;-75
2023/12/27 00:56:14;;;;;;;11.50;5.47;;;;;;;;;;7372390;19;19998;-76
2023/12/27 00:58:40;;;;;;;16.63;7.05;;;;;;;;;;7369527;19;20080;-75
2023/12/27 01:01:05;;;;;;;14.68;6.30;;;;;;;;;;7368839;19;20082;-75
2023/12/27 01:03:31;;;;;;;14.52;6.22;;;;;;;;;;7368677;19;20366;-76
2023/12/27 01:05:56;;;;;;;14.98;6.03;;;;;;;;;;7370154;19;19998;-76
2023/12/27 01:08:21;;;;;;;16.02;6.13;;;;;;;;;;7391500;19;20039;-74
2023/12/27 01:10:46;;;;;;;14.48;6.15;;;;;;;;;;7371643;19;20443;-75
2023/12/27 01:13:12;;;;;;;19.30;6.78;;;;;;;;;;7371758;19;20013;-75
2023/12/27 01:15:37;;;;;;;20.33;6.72;;;;;;;;;;7372602;19;20026;-75
2023/12/27 01:18:03;;;;;;;12.77;7.20;;;;;;;;;;7372564;19;19998;-75
2023/12/27 01:20:28;;;;;;;14.82;6.53;;;;;;;;;;7396755;19;20035;-75
2023/12/27 01:22:53;;;;;;;15.23;6.43;;;;;;;;;;7370763;19;19999;-75
2023/12/27 01:25:19;;;;;;;13.77;6.38;;;;;;;;;;7369254;19;20015;-75
2023/12/27 01:27:46;;;;;;;17.95;6.38;;;;;;;;;;7369061;19;20010;-75
2023/12/27 01:30:12;;;;;;;13.48;5.70;;;;;;;;;;7368042;19;20462;-76
2023/12/27 01:32:37;;;;;;;15.73;5.82;;;;;;;;;;7392031;19;20011;-76
2023/12/27 01:35:03;;;;;;;12.82;6.13;;;;;;;;;;7368462;19;20401;-74
2023/12/27 01:37:31;;;;;;;15.02;6.22;;;;;;;;;;7370985;19;20012;-78
2023/12/27 01:39:56;;;;;;;14.93;6.68;;;;;;;;;;7370522;19;20407;-75
2023/12/27 01:42:28;;;;;;;16.35;7.15;;;;;;;;;;7370112;19;20010;-77
2023/12/27 01:44:56;;;;;;;13.23;6.72;;;;;;;;;;7371868;19;20003;-77
2023/12/27 01:47:21;;;;;;;16.65;7.15;;;;;;;;;;7393740;19;20423;-75
2023/12/27 01:49:47;;;;;;;18.75;7.30;;;;;;;;;;7367749;19;20711;-74
2023/12/27 01:52:13;;;;;;;14.85;6.97;;;;;;;;;;7377035;19;20035;-74
2023/12/27 01:54:38;;;;;;;15.60;6.07;;;;;;;;;;7372139;19;20002;-75
2023/12/27 01:57:04;;;;;;;16.67;7.03;;;;;;;;;;7370988;19;19999;-76
2023/12/27 01:59:30;;;;;;;17.52;6.93;;;;;;;;;;7389133;19;20048;-78
2023/12/27 02:01:55;;;;;;;11.27;6.13;;;;;;;;;;7364950;19;20015;-75
2023/12/27 02:04:20;;;;;;;16.63;7.13;;;;;;;;;;7364419;19;20010;-76
2023/12/27 02:06:47;;;;;;;14.05;7.07;;;;;;;;;;7365069;19;20007;-76
2023/12/27 02:09:12;;;;;;;15.43;7.07;;;;;;;;;;7369604;19;20990;-77
2023/12/27 02:11:38;;;;;;;12.52;6.95;;;;;;;;;;7390130;19;20007;-75
2023/12/27 02:14:06;;;;;;;16.67;6.60;;;;;;;;;;7366377;19;20070;-75
2023/12/27 02:16:31;;;;;;;15.77;6.63;;;;;;;;;;7368221;19;20023;-77
2023/12/27 02:18:59;;;;;;;13.70;6.70;;;;;;;;;;7367060;19;20003;-75
2023/12/27 02:21:25;;;;;;;17.92;6.03;;;;;;;;;;7367794;19;20813;-75
2023/12/27 02:23:53;;;;;;;14.95;6.53;;;;;;;;;;7381415;19;19998;-76
2023/12/27 02:26:20;;;;;;;12.50;5.90;;;;;;;;;;7390780;19;20851;-75
2023/12/27 02:28:45;;;;;;;22.45;7.78;;;;;;;;;;7363531;19;20014;-75
2023/12/27 02:31:10;;;;;;;14.57;6.40;;;;;;;;;;7367791;19;20115;-76
2023/12/27 02:33:36;;;;;;;11.80;5.55;;;;;;;;;;7366560;19;20378;-75
2023/12/27 02:36:01;;;;;;;18.25;6.55;;;;;;;;;;7367574;19;20014;-75
2023/12/27 02:38:26;;;;;;;13.80;6.07;;;;;;;;;;7389194;19;20010;-74
2023/12/27 02:40:51;;;;;;;20.58;6.63;;;;;;;;;;7367094;19;20010;-75
2023/12/27 02:43:17;;;;;;;15.48;7.25;;;;;;;;;;7364363;19;20013;-75
2023/12/27 02:45:42;;;;;;;15.35;7.00;;;;;;;;;;7365446;19;20583;-74
2023/12/27 02:48:08;;;;;;;19.45;7.25;;;;;;;;;;7367831;19;20006;-75
2023/12/27 02:50:33;;;;;;;17.27;7.57;;;;;;;;;;7389364;19;20035;-75
2023/12/27 02:52:58;;;;;;;14.82;7.00;;;;;;;;;;7366241;19;20480;-75
2023/12/27 02:55:23;;;;;;;16.10;6.13;;;;;;;;;;7367077;19;20611;-75
2023/12/27 02:57:49;;;;;;;16.73;7.03;;;;;;;;;;7364911;19;20106;-75
2023/12/27 03:00:14;;;;;;;13.07;6.93;;;;;;;;;;7368463;19;20010;-75
2023/12/27 03:02:39;;;;;;;17.10;6.95;;;;;;;;;;7397964;19;20366;-75
2023/12/27 03:05:05;;;;;;;21.70;7.45;;;;;;;;;;7372368;19;20011;-75
2023/12/27 03:07:30;;;;;;;17.25;6.60;;;;;;;;;;7365003;19;20820;-75
2023/12/27 03:09:56;;;;;;;20.33;7.28;;;;;;;;;;7367545;19;20079;-75
2023/12/27 03:12:21;;;;;;;14.32;6.60;;;;;;;;;;7365169;19;20073;-75
2023/12/27 03:14:47;;;;;;;18.63;7.63;;;;;;;;;;7387113;19;20005;-75
2023/12/27 03:17:12;;;;;;;16.00;6.72;;;;;;;;;;7365290;19;20483;-75
2023/12/27 03:19:37;;;;;;;17.65;7.40;;;;;;;;;;7364869;19;20010;-75
2023/12/27 03:22:03;;;;;;;15.93;7.32;;;;;;;;;;7365532;19;20378;-75
2023/12/27 03:24:28;;;;;;;18.48;6.95;;;;;;;;;;7364672;19;20037;-75
2023/12/27 03:26:53;;;;;;;15.23;7.45;;;;;;;;;;7366495;19;20467;-75
2023/12/27 03:29:19;;;;;;;16.30;7.20;;;;;;;;;;7387743;19;20006;-75
2023/12/27 03:31:44;;;;;;;14.65;6.57;;;;;;;;;;7365069;19;19998;-75
2023/12/27 03:34:09;;;;;;;11.80;6.55;;;;;;;;;;7365241;19;20003;-75
2023/12/27 03:36:35;;;;;;;15.90;6.70;;;;;;;;;;7366504;19;20512;-76
2023/12/27 03:39:00;;;;;;;15.57;6.88;;;;;;;;;;7366648;19;20461;-75
2023/12/27 03:41:25;;;;;;;18.70;6.68;;;;;;;;;;7387503;19;20321;-75
2023/12/27 03:43:54;;;;;;;15.80;7.32;;;;;;;;;;7363350;19;20079;-75
2023/12/27 03:46:20;;;;;;;15.45;6.15;;;;;;;;;;7365035;19;20003;-75
2023/12/27 03:48:45;;;;;;;17.88;7.45;;;;;;;;;;7361764;19;20031;-75
2023/12/27 03:51:13;;;;;;;19.45;6.45;;;;;;;;;;7369907;19;19998;-77
2023/12/27 03:53:38;;;;;;;17.13;6.95;;;;;;;;;;7407768;19;20030;-76
2023/12/27 03:56:08;;;;;;;17.45;7.05;;;;;;;;;;7383373;19;20077;-75
2023/12/27 03:58:34;;;;;;;13.80;6.80;;;;;;;;;;7377295;19;20003;-75
2023/12/27 04:00:59;;;;;;;15.90;6.65;;;;;;;;;;7371344;19;20481;-75
2023/12/27 04:03:25;;;;;;;14.38;6.55;;;;;;;;;;7370331;19;20002;-75
2023/12/27 04:05:50;;;;;;;14.25;6.80;;;;;;;;;;7391120;19;20007;-75
2023/12/27 04:08:15;;;;;;;15.45;6.60;;;;;;;;;;7378417;19;20174;-75
2023/12/27 04:10:41;;;;;;;14.32;6.78;;;;;;;;;;7372676;19;20007;-75
2023/12/27 04:13:06;;;;;;;16.98;7.05;;;;;;;;;;7371496;19;20134;-75
2023/12/27 04:15:31;;;;;;;14.90;6.88;;;;;;;;;;7373577;19;20469;-75
2023/12/27 04:17:56;;;;;;;14.70;6.97;;;;;;;;;;7371995;19;20003;-75
2023/12/27 04:20:22;;;;;;;17.58;7.20;;;;;;;;;;7393644;19;20011;-75
2023/12/27 04:22:47;;;;;;;16.35;6.95;;;;;;;;;;7370868;19;20030;-75
2023/12/27 04:25:12;;;;;;;15.50;6.90;;;;;;;;;;7370262;19;20605;-75
2023/12/27 04:27:38;;;;;;;18.90;7.93;;;;;;;;;;7370857;19;20066;-75
2023/12/27 04:30:04;;;;;;;18.98;8.32;;;;;;;;;;7371447;19;20474;-75
2023/12/27 04:32:29;;;;;;;15.93;7.93;;;;;;;;;;7392990;19;20009;-75
2023/12/27 04:34:55;;;;;;;16.80;8.70;;;;;;;;;;7370353;19;20109;-75
2023/12/27 04:37:20;;;;;;;18.73;8.65;;;;;;;;;;7370729;19;20010;-75
2023/12/27 04:39:45;;;;;;;15.45;7.28;;;;;;;;;;7371610;19;20051;-75
2023/12/27 04:42:11;;;;;;;15.75;7.68;;;;;;;;;;7372120;19;20107;-75
2023/12/27 04:44:36;;;;;;;15.55;7.85;;;;;;;;;;7390398;19;20027;-75
2023/12/27 04:47:02;;;;;;;18.85;8.20;;;;;;;;;;7370527;19;20006;-75
2023/12/27 04:49:27;;;;;;;14.35;7.30;;;;;;;;;;7370178;19;20358;-75
2023/12/27 04:51:53;;;;;;;17.52;7.38;;;;;;;;;;7373742;19;20017;-75
2023/12/27 04:54:18;;;;;;;16.55;7.50;;;;;;;;;;7369139;19;20414;-75
2023/12/27 04:56:43;;;;;;;15.30;7.65;;;;;;;;;;7393272;19;20026;-75
2023/12/27 04:59:09;;;;;;;12.70;7.57;;;;;;;;;;7371735;19;20018;-75
2023/12/27 05:01:34;;;;;;;14.75;7.40;;;;;;;;;;7370267;19;20053;-75
2023/12/27 05:03:59;;;;;;;15.30;7.20;;;;;;;;;;7368106;19;20011;-75
2023/12/27 05:06:25;;;;;;;15.80;8.15;;;;;;;;;;7369945;19;20006;-75
2023/12/27 05:08:50;;;;;;;21.83;8.35;;;;;;;;;;7391454;19;20078;-75
2023/12/27 05:11:21;;;;;;;18.95;8.35;;;;;;;;;;7376120;19;20010;-75
2023/12/27 05:13:47;;;;;;;16.00;8.35;;;;;;;;;;7368444;19;20507;-75
2023/12/27 05:16:14;;;;;;;19.05;8.70;;;;;;;;;;7370057;19;20122;-75
2023/12/27 05:18:41;;;;;;;19.10;9.82;;;;;;;;;;7373375;19;20011;-75
2023/12/27 05:21:08;;;;;;;17.58;9.43;;;;;;;;;;7386701;19;20005;-75
2023/12/27 05:23:33;;;;;;;16.45;10.00;;;;;;;;;;7394113;19;20018;-75
2023/12/27 05:25:59;;;;;;;16.48;10.45;;;;;;;;;;7370297;19;20400;-75
2023/12/27 05:28:24;;;;;;;17.60;10.80;;;;;;;;;;7368907;19;20018;-75
2023/12/27 05:30:49;;;;;;;18.27;10.73;;;;;;;;;;7370578;19;20026;-75
2023/12/27 05:33:15;;;;;;;15.15;10.23;;;;;;;;;;7369723;19;20042;-75
2023/12/27 05:35:40;;;;;;;19.20;10.60;;;;;;;;;;7392419;19;20018;-75
2023/12/27 05:38:05;;;;;;;19.95;10.40;;;;;;;;;;7368322;19;20550;-75
2023/12/27 05:40:31;;;;;;;18.42;10.60;;;;;;;;;;7368906;19;20441;-75
2023/12/27 05:42:56;;;;;;;23.60;12.02;;;;;;;;;;7368970;19;20007;-75
2023/12/27 05:45:21;;;;;;;20.60;11.27;;;;;;;;;;7368607;19;20014;-76
2023/12/27 05:47:48;;;;;;;28.63;13.27;;;;;;;;;;7392649;19;20010;-76
2023/12/27 05:50:14;;;;;;;29.15;12.65;;;;;;;;;;7374852;19;20017;-76
2023/12/27 05:52:40;;;;;;;30.33;14.13;;;;;;;;;;7370503;19;20014;-75
2023/12/27 05:55:05;;;;;;;58.20;27.63;;;;;;;;;;7370293;19;20021;-75
2023/12/27 05:57:31;;;;;;;145.80;76.20;;;;;;;;;;7372061;19;20021;-75
2023/12/27 05:59:56;;;;;;;132.82;69.10;;;;;;;;;;7386686;19;20007;-76
2023/12/27 06:02:22;;;;;;;112.82;61.80;;;;;;;;;;7404970;19;20003;-76
2023/12/27 06:04:47;;;;;;;91.00;46.58;;;;;;;;;;7384066;19;20007;-76
2023/12/27 06:07:12;;;;;;;76.50;39.78;;;;;;;;;;7383527;19;20014;-75
2023/12/27 06:09:39;;;;;;;87.47;46.45;;;;;;;;;;7375151;19;20010;-77
2023/12/27 06:12:07;;;;;;;55.63;27.48;;;;;;;;;;7373549;19;20011;-75
2023/12/27 06:14:32;;;;;;;50.00;15.95;;;;;;;;;;7390489;19;20011;-75
2023/12/27 06:16:57;;;;;;;39.03;15.05;;;;;;;;;;7367476;19;20002;-75
2023/12/27 06:19:23;;;;;;;46.05;15.95;;;;;;;;;;7367575;19;20010;-75
2023/12/27 06:21:48;;;;;;;43.40;16.13;;;;;;;;;;7368159;19;20009;-75
2023/12/27 06:24:14;;;;;;;49.38;18.65;;;;;;;;;;7366435;19;20014;-75
2023/12/27 06:26:40;;;;;;;45.13;17.80;;;;;;;;;;7390270;19;20012;-75
2023/12/27 06:29:05;;;;;;;46.72;17.52;;;;;;;;;;7367806;19;20031;-75
2023/12/27 06:31:34;;;;;;;50.28;18.63;;;;;;;;;;7367682;19;20014;-74
2023/12/27 06:33:59;;;;;;;52.72;21.20;;;;;;;;;;7366984;19;20026;-75
2023/12/27 06:36:25;;;;;;;57.05;22.88;;;;;;;;;;7366724;19;20010;-75
2023/12/27 06:38:50;;;;;;;53.88;19.85;;;;;;;;;;7389783;19;20026;-75
2023/12/27 06:41:16;;;;;;;52.40;20.98;;;;;;;;;;7374413;19;20409;-75
2023/12/27 06:43:43;;;;;;;48.60;18.98;;;;;;;;;;7365940;19;20018;-75
2023/12/27 06:46:08;;;;;;;55.05;23.73;;;;;;;;;;7367399;19;20523;-75
2023/12/27 06:48:34;;;;;;;57.47;26.08;;;;;;;;;;7368065;19;20006;-75
2023/12/27 06:51:01;;;;;;;51.45;19.63;;;;;;;;;;7367576;19;20416;-75
2023/12/27 06:53:27;;;;;;;57.38;22.33;;;;;;;;;;7387067;19;20109;-76
2023/12/27 06:55:52;;;;;;;60.72;23.95;;;;;;;;;;7367333;19;20014;-76
2023/12/27 06:58:17;;;;;;;50.80;19.15;;;;;;;;;;7367667;19;20523;-76
2023/12/27 07:00:43;;;;;;;53.63;22.88;;;;;;;;;;7365405;19;20012;-76
2023/12/27 07:03:08;;;;;;;63.30;28.00;;;;;;;;;;7365248;19;20062;-76
2023/12/27 07:05:33;;;;;;;61.53;20.60;;;;;;;;;;7386039;19;20006;-76
2023/12/27 07:07:58;;;;;;;51.05;20.55;;;;;;;;;;7363815;19;20459;-76
2023/12/27 07:10:24;;;;;;;49.38;21.35;;;;;;;;;;7366114;19;20002;-76
2023/12/27 07:12:49;;;;;;;61.67;24.60;;;;;;;;;;7364527;19;20010;-76
2023/12/27 07:15:14;;;;;;;58.20;22.15;;;;;;;;;;7366118;19;20007;-76
2023/12/27 07:17:40;;;;;;;50.35;20.90;;;;;;;;;;7387683;19;19998;-76
2023/12/27 07:20:05;;;;;;;46.20;20.20;;;;;;;;;;7366402;19;20093;-76
2023/12/27 07:22:31;;;;;;;43.42;20.95;;;;;;;;;;7363609;19;19998;-76
2023/12/27 07:24:56;;;;;;;41.08;18.23;;;;;;;;;;7363271;19;20026;-75
2023/12/27 07:27:21;;;;;;;38.97;17.73;;;;;;;;;;7362866;19;20015;-76
2023/12/27 07:29:46;;;;;;;44.50;19.67;;;;;;;;;;7386543;19;20054;-76
2023/12/27 07:32:12;;;;;;;42.13;18.00;;;;;;;;;;7365042;19;20001;-74
2023/12/27 07:34:38;;;;;;;38.95;17.95;;;;;;;;;;7365479;19;20007;-74
2023/12/27 07:37:03;;;;;;;43.95;19.50;;;;;;;;;;7375529;19;20002;-75
2023/12/27 07:39:29;;;;;;;39.28;18.80;;;;;;;;;;7375272;19;19999;-74
2023/12/27 07:41:54;;;;;;;39.92;17.50;;;;;;;;;;7367550;19;20013;-76
2023/12/27 07:44:20;;;;;;;41.80;19.10;;;;;;;;;;7385876;19;19999;-74
2023/12/27 07:46:46;;;;;;;44.35;19.48;;;;;;;;;;7364768;19;21038;-75
2023/12/27 07:49:11;;;;;;;42.03;19.55;;;;;;;;;;7360049;19;20022;-75
2023/12/27 07:51:37;;;;;;;40.35;19.02;;;;;;;;;;7363854;19;20006;-76
2023/12/27 07:54:03;;;;;;;46.80;20.50;;;;;;;;;;7351061;19;20078;-75
2023/12/27 07:56:28;;;;;;;40.40;18.98;;;;;;;;;;7384645;19;20078;-76
2023/12/27 07:58:54;;;;;;;44.45;21.30;;;;;;;;;;7362067;19;20045;-75
2023/12/27 08:01:20;;;;;;;42.35;19.60;;;;;;;;;;7364601;19;20002;-75
2023/12/27 08:03:46;;;;;;;38.88;20.73;;;;;;;;;;7361529;19;20006;-75
2023/12/27 08:06:12;;;;;;;38.75;18.63;;;;;;;;;;7360656;19;20003;-76
2023/12/27 08:08:38;;;;;;;34.83;17.17;;;;;;;;;;7384396;19;19998;-75
2023/12/27 08:11:06;;;;;;;32.38;17.35;;;;;;;;;;7363010;19;20025;-74
2023/12/27 08:13:32;;;;;;;39.05;18.60;;;;;;;;;;7362094;19;20014;-75
2023/12/27 08:15:57;;;;;;;37.38;18.08;;;;;;;;;;7360698;19;20014;-74
2023/12/27 08:18:22;;;;;;;34.00;17.33;;;;;;;;;;7361620;19;20026;-74
2023/12/27 08:20:48;;;;;;;31.45;17.25;;;;;;;;;;7382314;19;20009;-74
2023/12/27 08:23:16;;;;;;;34.88;16.95;;;;;;;;;;7360239;19;20010;-74
2023/12/27 08:25:41;;;;;;;31.73;16.73;;;;;;;;;;7360233;19;20018;-74
2023/12/27 08:28:08;;;;;;;35.03;18.25;;;;;;;;;;7360625;19;20014;-75
2023/12/27 08:30:33;;;;;;;36.08;17.50;;;;;;;;;;7367531;19;20050;-75
2023/12/27 08:33:00;;;;;;;35.42;16.58;;;;;;;;;;7363314;19;20006;-76
2023/12/27 08:35:25;;;;;;;33.17;17.48;;;;;;;;;;7389663;19;20013;-75
2023/12/27 08:37:51;;;;;;;32.28;16.25;;;;;;;;;;7359756;19;20006;-75
2023/12/27 08:40:18;;;;;;;31.60;16.15;;;;;;;;;;7370227;19;20014;-75
2023/12/27 08:42:44;;;;;;;33.00;15.52;;;;;;;;;;7377312;19;20006;-76
2023/12/27 08:45:09;;;;;;;29.15;15.35;;;;;;;;;;7371510;19;20548;-75
2023/12/27 08:47:35;;;;;;;32.55;15.73;;;;;;;;;;7392326;19;20058;-75
2023/12/27 08:50:00;;;;;;;27.15;15.15;;;;;;;;;;7371374;19;20018;-75
2023/12/27 08:52:25;;;;;;;32.47;16.50;;;;;;;;;;7371944;19;20057;-75
2023/12/27 08:54:52;;;;;;;29.27;14.48;;;;;;;;;;7372021;19;20014;-75
2023/12/27 08:57:17;;;;;;;33.67;16.27;;;;;;;;;;7371315;19;20011;-75
2023/12/27 08:59:42;;;;;;;27.92;15.52;;;;;;;;;;7394270;19;20457;-75
2023/12/27 09:02:08;;;;;;;23.98;13.45;;;;;;;;;;7371495;19;20014;-75
2023/12/27 09:04:33;;;;;;;24.25;13.82;;;;;;;;;;7369808;19;20018;-75
2023/12/27 09:06:58;;;;;;;25.40;13.88;;;;;;;;;;7372576;19;20010;-75
2023/12/27 09:09:24;;;;;;;25.13;14.57;;;;;;;;;;7370423;19;20378;-75
2023/12/27 09:11:49;;;;;;;26.65;15.02;;;;;;;;;;7404674;19;20044;-79
2023/12/27 09:14:14;;;;;;;31.45;15.60;;;;;;;;;;7377959;19;20066;-78
2023/12/27 09:16:40;;;;;;;23.05;14.55;;;;;;;;;;7367417;19;20022;-74
2023/12/27 09:19:05;;;;;;;23.73;14.35;;;;;;;;;;7366699;19;20014;-75
2023/12/27 09:21:31;;;;;;;22.70;13.75;;;;;;;;;;7369043;19;20028;-74
2023/12/27 09:23:57;;;;;;;19.58;12.85;;;;;;;;;;7367236;19;20465;-75
2023/12/27 09:26:22;;;;;;;23.92;13.70;;;;;;;;;;7387751;19;20015;-74
2023/12/27 09:28:48;;;;;;;24.23;13.68;;;;;;;;;;7369803;19;20027;-74
2023/12/27 09:31:13;;;;;;;24.58;13.65;;;;;;;;;;7369172;19;20524;-74
2023/12/27 09:33:42;;;;;;;21.52;12.27;;;;;;;;;;7375149;19;20010;-75
2023/12/27 09:36:08;;;;;;;22.20;13.35;;;;;;;;;;7371996;19;20027;-75
2023/12/27 09:38:33;;;;;;;20.13;12.52;;;;;;;;;;7397810;19;19999;-75
2023/12/27 09:40:58;;;;;;;26.60;13.07;;;;;;;;;;7371811;19;20014;-74
2023/12/27 09:43:24;;;;;;;20.23;11.35;;;;;;;;;;7371481;19;20114;-74
2023/12/27 09:45:52;;;;;;;22.40;10.48;;;;;;;;;;7369397;19;20003;-74
2023/12/27 09:48:19;;;;;;;20.52;9.68;;;;;;;;;;7368549;19;20009;-76
2023/12/27 09:50:44;;;;;;;15.45;9.50;;;;;;;;;;7390067;19;20037;-75
2023/12/27 09:53:10;;;;;;;19.30;9.40;;;;;;;;;;7369607;19;20002;-74
2023/12/27 09:55:36;;;;;;;16.05;8.85;;;;;;;;;;7377504;19;20212;-74
2023/12/27 09:58:04;;;;;;;14.68;8.82;;;;;;;;;;7367672;19;20009;-75
2023/12/27 10:00:32;;;;;;;13.80;7.97;;;;;;;;;;7368658;19;20025;-75
2023/12/27 10:02:59;;;;;;;14.52;8.02;;;;;;;;;;7365293;19;20017;-75
2023/12/27 10:05:46;;;;;;;15.98;8.02;;;;;;;;;;7390696;19;20330;-76
2023/12/27 10:08:12;;;;;;;18.27;8.32;;;;;;;;;;7361735;19;20010;-73
2023/12/27 10:10:38;;;;;;;16.10;7.95;;;;;;;;;;7365513;19;20015;-73
2023/12/27 10:13:04;;;;;;;16.73;8.27;;;;;;;;;;7363453;19;20137;-73
2023/12/27 10:15:29;;;;;;;18.63;7.55;;;;;;;;;;7363717;19;20350;-74
2023/12/27 10:17:55;;;;;;;13.93;6.13;;;;;;;;;;7361341;19;20003;-73
2023/12/27 10:20:32;;;;;;;14.52;5.50;;;;;;;;;;7383941;19;20362;-73
2023/12/27 10:22:59;;;;;;;17.67;5.47;;;;;;;;;;7364234;19;20536;-72
2023/12/27 10:25:28;;;;;;;12.15;5.15;;;;;;;;;;7362740;19;20357;-73
2023/12/27 10:27:53;;;;;;;12.55;5.22;;;;;;;;;;7364439;19;20014;-74
2023/12/27 10:30:19;;;;;;;15.57;5.00;;;;;;;;;;7363310;19;20488;-74
2023/12/27 10:32:56;;;;;;;12.55;5.05;;;;;;;;;;7387866;19;20003;-73
2023/12/27 10:35:21;;;;;;;11.90;5.55;;;;;;;;;;7365853;19;20048;-73
2023/12/27 10:37:57;;;;;;;10.88;5.20;;;;;;;;;;7362071;19;20007;-74
2023/12/27 10:40:23;;;;;;;13.82;5.97;;;;;;;;;;7365677;19;20447;-74
2023/12/27 10:42:48;;;;;;;10.23;5.78;;;;;;;;;;7367485;19;20003;-73
2023/12/27 10:45:16;;;;;;;15.30;5.57;;;;;;;;;;7365135;19;20739;-75
2023/12/27 10:47:43;;;;;;;10.55;5.32;;;;;;;;;;7386778;19;20010;-74
2023/12/27 10:50:12;;;;;;;12.43;5.00;;;;;;;;;;7363863;19;20010;-74
2023/12/27 10:52:41;;;;;;;14.60;5.10;;;;;;;;;;7361864;19;20025;-74
2023/12/27 10:55:08;;;;;;;13.55;5.47;;;;;;;;;;7363607;19;19999;-74
2023/12/27 10:57:35;;;;;;;12.07;4.97;;;;;;;;;;7365558;19;20014;-74
2023/12/27 11:00:03;;;;;;;11.73;4.60;;;;;;;;;;7364881;19;20008;-74
2023/12/27 11:02:29;;;;;;;9.32;4.25;;;;;;;;;;7383827;19;19998;-73
2023/12/27 11:04:55;;;;;;;10.88;4.45;;;;;;;;;;7361367;19;20007;-74
2023/12/27 11:07:21;;;;;;;9.52;3.80;;;;;;;;;;7363909;19;20079;-74
2023/12/27 11:09:48;;;;;;;13.13;4.15;;;;;;;;;;7363122;19;20430;-74
2023/12/27 11:12:19;;;;;;;9.73;3.45;;;;;;;;;;7361643;19;20006;-74
2023/12/27 11:14:47;;;;;;;8.98;3.35;;;;;;;;;;7387297;19;20022;-74
2023/12/27 11:17:15;;;;;;;8.50;3.15;;;;;;;;;;7364198;19;20010;-74
2023/12/27 11:19:42;;;;;;;8.38;2.90;;;;;;;;;;7366263;19;20472;-74
2023/12/27 11:22:08;;;;;;;10.27;3.67;;;;;;;;;;7362372;19;20017;-74
2023/12/27 11:24:36;;;;;;;7.35;2.80;;;;;;;;;;7363680;19;20010;-73
2023/12/27 11:27:02;;;;;;;8.07;2.90;;;;;;;;;;7364609;19;20002;-73
2023/12/27 11:29:29;;;;;;;8.27;2.67;;;;;;;;;;7386109;19;20018;-74
2023/12/27 11:31:56;;;;;;;7.63;2.42;;;;;;;;;;7362676;19;20607;-73
2023/12/27 11:34:21;;;;;;;7.90;2.45;;;;;;;;;;7363932;19;20014;-74
2023/12/27 11:36:50;;;;;;;5.38;2.67;;;;;;;;;;7361761;19;20017;-73
2023/12/27 11:39:28;;;;;;;10.55;3.08;;;;;;;;;;7362945;19;21062;-73
2023/12/27 11:41:53;;;;;;;8.23;3.33;;;;;;;;;;7361632;19;20015;-73
2023/12/27 11:44:18;;;;;;;7.75;2.92;;;;;;;;;;7381902;19;20508;-74
2023/12/27 11:46:44;;;;;;;8.30;2.83;;;;;;;;;;7360892;19;20011;-74
2023/12/27 11:49:17;;;;;;;8.85;2.92;;;;;;;;;;7362245;19;20031;-73
2023/12/27 11:51:43;;;;;;;7.10;2.90;;;;;;;;;;7361254;19;20007;-73
2023/12/27 11:54:08;;;;;;;9.05;3.22;;;;;;;;;;7359866;19;20007;-73
2023/12/27 11:56:36;;;;;;;8.18;3.00;;;;;;;;;;7383671;19;20087;-73
2023/12/27 11:59:06;;;;;;;6.30;2.78;;;;;;;;;;7359382;19;20010;-73
2023/12/27 12:01:36;;;;;;;7.10;2.95;;;;;;;;;;7361492;19;20099;-73
2023/12/27 12:04:01;;;;;;;7.47;2.78;;;;;;;;;;7359800;19;20023;-73
2023/12/27 12:06:54;;;;;;;9.95;3.30;;;;;;;;;;7361837;19;20105;-73
2023/12/27 12:09:41;;;;;;;9.10;3.10;;;;;;;;;;7360503;19;20007;-73
2023/12/27 12:12:10;;;;;;;10.07;2.85;;;;;;;;;;7366588;19;20011;-73
2023/12/27 12:14:37;;;;;;;6.75;2.83;;;;;;;;;;7389240;19;20002;-72
2023/12/27 12:17:03;;;;;;;10.13;2.60;;;;;;;;;;7369401;19;20030;-73
2023/12/27 12:19:29;;;;;;;8.27;2.60;;;;;;;;;;7368526;19;20018;-74
2023/12/27 12:21:54;;;;;;;7.85;2.70;;;;;;;;;;7367430;19;20037;-74
2023/12/27 12:24:20;;;;;;;7.90;2.47;;;;;;;;;;7369290;19;20010;-73
2023/12/27 12:26:48;;;;;;;9.30;2.70;;;;;;;;;;7392277;19;20170;-73
2023/12/27 12:29:14;;;;;;;9.45;2.88;;;;;;;;;;7371794;19;20017;-74
2023/12/27 12:31:40;;;;;;;7.45;2.83;;;;;;;;;;7371988;19;20013;-74
2023/12/27 12:34:05;;;;;;;9.70;3.13;;;;;;;;;;7370413;19;20455;-74
2023/12/27 12:36:30;;;;;;;8.05;2.58;;;;;;;;;;7370324;19;20019;-74
2023/12/27 12:38:56;;;;;;;9.05;2.92;;;;;;;;;;7368330;19;20013;-74
2023/12/27 12:41:21;;;;;;;6.60;2.83;;;;;;;;;;7393045;19;20603;-74
2023/12/27 12:43:48;;;;;;;10.77;3.13;;;;;;;;;;7368788;19;20417;-74
2023/12/27 12:46:14;;;;;;;7.78;2.80;;;;;;;;;;7372447;19;20346;-74
2023/12/27 12:48:40;;;;;;;11.32;3.17;;;;;;;;;;7371867;19;20003;-73
2023/12/27 12:51:15;;;;;;;9.48;2.78;;;;;;;;;;7371975;19;20534;-73
2023/12/27 12:53:41;;;;;;;9.20;2.78;;;;;;;;;;7392285;19;20007;-73
2023/12/27 12:56:08;;;;;;;8.40;2.70;;;;;;;;;;7371164;19;19999;-75
2023/12/27 12:58:34;;;;;;;8.90;2.75;;;;;;;;;;7369527;19;20090;-75
2023/12/27 13:01:00;;;;;;;10.98;3.00;;;;;;;;;;7372005;19;20007;-75
2023/12/27 13:03:30;;;;;;;10.55;3.28;;;;;;;;;;7370978;19;20047;-75
2023/12/27 13:05:56;;;;;;;8.27;2.88;;;;;;;;;;7369659;19;20002;-74
2023/12/27 13:08:24;;;;;;;7.05;2.50;;;;;;;;;;7393805;19;19998;-74
2023/12/27 13:10:50;;;;;;;8.15;2.75;;;;;;;;;;7372007;19;20560;-73
2023/12/27 13:13:16;;;;;;;7.68;2.53;;;;;;;;;;7374319;19;20022;-75
2023/12/27 13:15:41;;;;;;;12.23;3.17;;;;;;;;;;7373677;19;20433;-73
2023/12/27 13:18:07;;;;;;;7.38;3.33;;;;;;;;;;7372216;19;20460;-73
2023/12/27 13:20:32;;;;;;;8.82;3.03;;;;;;;;;;7393753;19;20010;-75
2023/12/27 13:22:58;;;;;;;10.10;3.00;;;;;;;;;;7371339;19;20014;-74
2023/12/27 13:25:23;;;;;;;13.38;2.97;;;;;;;;;;7369911;19;20011;-73
2023/12/27 13:27:48;;;;;;;8.20;2.95;;;;;;;;;;7367870;19;20033;-73
2023/12/27 13:30:14;;;;;;;9.77;2.70;;;;;;;;;;7369473;19;20003;-73
2023/12/27 13:32:39;;;;;;;10.20;2.72;;;;;;;;;;7392463;19;20037;-73
2023/12/27 13:35:06;;;;;;;6.18;2.70;;;;;;;;;;7369336;19;20413;-73
2023/12/27 13:37:31;;;;;;;15.55;2.88;;;;;;;;;;7370031;19;20501;-73
2023/12/27 13:39:57;;;;;;;14.25;3.45;;;;;;;;;;7370182;19;20011;-73
2023/12/27 13:42:22;;;;;;;10.10;3.25;;;;;;;;;;7369343;19;20024;-74
2023/12/27 13:44:48;;;;;;;11.13;3.25;;;;;;;;;;7392238;19;20080;-74
2023/12/27 13:47:16;;;;;;;8.10;3.00;;;;;;;;;;7372639;19;20111;-74
2023/12/27 13:49:43;;;;;;;8.15;2.50;;;;;;;;;;7369783;19;20006;-73
2023/12/27 13:52:09;;;;;;;7.90;2.60;;;;;;;;;;7370897;19;20002;-74
2023/12/27 13:54:34;;;;;;;8.98;3.05;;;;;;;;;;7367511;19;20022;-74
2023/12/27 13:56:59;;;;;;;8.95;2.60;;;;;;;;;;7370045;19;20071;-73
2023/12/27 13:59:24;;;;;;;8.48;2.85;;;;;;;;;;7392565;19;20006;-74
2023/12/27 14:01:50;;;;;;;7.43;2.75;;;;;;;;;;7369863;19;20007;-74
2023/12/27 14:04:15;;;;;;;11.43;3.10;;;;;;;;;;7368537;19;20075;-74
2023/12/27 14:06:41;;;;;;;8.25;3.05;;;;;;;;;;7369400;19;20006;-73
2023/12/27 14:09:09;;;;;;;8.82;3.10;;;;;;;;;;7369931;19;19995;-74
2023/12/27 14:11:35;;;;;;;8.38;3.50;;;;;;;;;;7391824;19;20374;-75
2023/12/27 14:14:03;;;;;;;21.52;9.23;;;;;;;;;;7367160;19;20010;-75
2023/12/27 14:16:30;;;;;;;12.93;5.10;;;;;;;;;;7372822;19;20849;-75
2023/12/27 14:18:55;;;;;;;8.35;3.42;;;;;;;;;;7369925;19;20010;-75
2023/12/27 14:21:21;;;;;;;13.60;3.38;;;;;;;;;;7371383;19;20095;-74